Time;durP1;ratioP1;P1;durP2;ratioP2;P2;SDS_P1;SDS_P2;PMS_P1;PMS_P2;Temp;Humidity;BMP_temperature;BMP_pressure;BME280_temperature;BME280_humidity;BME280_pressure;Samples;Min_cycle;Max_cycle;Signal;HPM_P1;HPM_P2
2021/04/27 16:43:43;;;;;;;13.98;3.00;;;;;;;21.81;37.45;98707.69;2073386;27;1673238;-75
2021/04/27 16:44:44;;;;;;;6.88;2.70;;;;;;;20.43;38.69;98704.56;2119699;28;20583;-77
2021/04/27 16:45:47;;;;;;;9.13;2.35;;;;;;;19.25;41.24;98709.00;2111741;27;20040;-70
2021/04/27 16:46:49;;;;;;;7.60;1.73;;;;;;;18.60;42.67;98700.75;2117046;28;20084;-75
2021/04/27 16:47:51;;;;;;;7.65;2.25;;;;;;;18.35;42.61;98712.34;2100457;28;20044;-73
2021/04/27 16:48:53;;;;;;;2.78;2.30;;;;;;;17.72;42.85;98704.41;2098607;28;20048;-72
2021/04/27 16:49:56;;;;;;;11.60;2.20;;;;;;;16.89;43.20;98708.63;2044817;28;20056;-71
2021/04/27 16:50:57;;;;;;;5.50;2.35;;;;;;;16.02;43.89;98715.16;2048188;28;20053;-72
2021/04/27 16:51:58;;;;;;;;;;;;;;;15.67;43.85;98714.50;2070064;28;20049;-71
2021/04/27 16:53:00;;;;;;;3.25;2.50;;;;;;;14.76;45.77;98714.94;2111559;28;19970;-70
2021/04/27 16:54:04;;;;;;;4.82;2.13;;;;;;;14.12;46.82;98719.75;2103689;28;20036;-72
2021/04/27 16:55:09;;;;;;;4.90;2.58;;;;;;;13.59;48.32;98700.31;2039283;28;20060;-74
2021/04/27 16:56:13;;;;;;;4.75;2.38;;;;;;;13.16;48.94;98714.94;2104131;28;20048;-72
2021/04/27 16:57:15;;;;;;;6.20;2.33;;;;;;;12.77;49.50;98717.31;2109308;28;20044;-70
2021/04/27 16:58:16;;;;;;;8.18;3.22;;;;;;;12.45;50.43;98716.84;2103333;28;20055;-72
2021/04/27 16:59:17;;;;;;;7.30;2.75;;;;;;;12.17;50.79;98710.28;2087114;28;20143;-71
2021/04/27 17:00:23;;;;;;;4.32;2.60;;;;;;;11.93;51.31;98720.09;2088824;28;20156;-71
2021/04/27 17:01:26;;;;;;;6.07;2.55;;;;;;;11.75;52.10;98728.91;2095486;28;20463;-70
2021/04/27 17:02:31;;;;;;;8.98;2.50;;;;;;;11.61;52.61;98727.44;2104254;28;20040;-70
2021/04/27 17:03:37;;;;;;;4.50;3.03;;;;;;;11.47;52.88;98723.34;2095952;28;20106;-69
2021/04/27 17:04:40;;;;;;;4.25;3.05;;;;;;;11.35;52.89;98721.41;2088616;28;20965;-70
2021/04/27 17:05:44;;;;;;;4.10;2.50;;;;;;;11.20;52.45;98726.28;2104575;28;20044;-70
2021/04/27 17:06:46;;;;;;;5.63;3.45;;;;;;;11.08;52.75;98720.09;2112488;28;20506;-71
2021/04/27 17:07:48;;;;;;;5.68;3.00;;;;;;;11.00;52.95;98713.19;2110674;28;20510;-70
2021/04/27 17:08:49;;;;;;;5.35;3.50;;;;;;;10.92;52.89;98724.16;2111363;28;20087;-71
2021/04/27 17:09:52;;;;;;;6.13;3.08;;;;;;;10.86;53.34;98725.81;2112187;28;20052;-71
2021/04/27 17:10:54;;;;;;;3.85;3.13;;;;;;;10.81;53.84;98733.66;2087117;28;20055;-71
2021/04/27 17:11:58;;;;;;;4.85;2.88;;;;;;;10.75;54.06;98718.56;2085382;28;20555;-71
2021/04/27 17:13:05;;;;;;;3.15;2.80;;;;;;;10.71;54.09;98728.03;2115158;28;20058;-70
2021/04/27 17:14:10;;;;;;;3.03;2.72;;;;;;;10.68;54.23;98728.47;2118707;28;20043;-70
2021/04/27 17:15:11;;;;;;;7.07;2.63;;;;;;;10.66;54.20;98730.53;2112023;28;20516;-70
2021/04/27 17:16:11;;;;;;;8.70;3.40;;;;;;;10.67;54.03;98732.19;2107279;28;20498;-71
2021/04/27 17:17:14;;;;;;;4.55;2.50;;;;;;;10.63;54.18;98728.31;2109074;28;20039;-70
2021/04/27 17:18:15;;;;;;;10.15;3.22;;;;;;;10.61;54.34;98730.38;2117330;28;20063;-69
2021/04/27 17:19:18;;;;;;;4.18;3.15;;;;;;;10.57;54.58;98727.34;2104655;28;20062;-69
2021/04/27 17:20:19;;;;;;;3.70;3.35;;;;;;;10.50;54.86;98721.25;2104086;28;20044;-70
2021/04/27 17:21:20;;;;;;;5.43;3.33;;;;;;;10.50;54.77;98731.09;2106106;28;20491;-69
2021/04/27 17:22:21;;;;;;;3.60;3.28;;;;;;;10.44;54.95;98735.44;2109968;28;20553;-70
2021/04/27 17:23:24;;;;;;;5.65;3.15;;;;;;;10.35;55.20;98718.91;2104248;28;20487;-70
2021/04/27 17:24:26;;;;;;;3.80;2.92;;;;;;;10.32;55.56;98729.97;2104172;28;20044;-69
2021/04/27 17:25:30;;;;;;;4.40;3.60;;;;;;;10.28;55.91;98731.47;2110478;28;20064;-69
2021/04/27 17:26:32;;;;;;;5.05;3.28;;;;;;;10.23;55.86;98732.06;2110995;28;20039;-70
2021/04/27 17:27:33;;;;;;;4.00;3.10;;;;;;;10.18;56.12;98729.25;2103246;28;20123;-69
2021/04/27 17:28:34;;;;;;;4.25;3.42;;;;;;;10.15;56.09;98739.53;2097092;28;20190;-69
2021/04/27 17:29:35;;;;;;;5.50;3.92;;;;;;;10.08;56.26;98733.41;2103178;28;20078;-71
2021/04/27 17:30:38;;;;;;;;;;;;;;;10.16;55.69;98738.47;2112706;28;20051;-69
2021/04/27 17:31:38;;;;;;;5.15;3.40;;;;;;;9.98;56.30;98734.69;2108369;28;19924;-73
2021/04/27 17:32:41;;;;;;;5.75;4.10;;;;;;;9.93;56.54;98737.16;2108092;28;20032;-71
2021/04/27 17:33:42;;;;;;;4.13;3.30;;;;;;;9.89;56.72;98735.19;2097578;28;20114;-72
2021/04/27 17:34:43;;;;;;;4.93;3.42;;;;;;;9.86;57.33;98740.91;2106135;28;20084;-73
2021/04/27 17:35:44;;;;;;;6.00;4.07;;;;;;;9.86;57.48;98736.41;2095323;28;20044;-72
2021/04/27 17:36:45;;;;;;;7.32;4.30;;;;;;;9.83;57.60;98742.16;2100742;28;20037;-72
2021/04/27 17:37:48;;;;;;;4.50;3.33;;;;;;;9.85;57.95;98740.09;2103517;28;20470;-73
2021/04/27 17:38:50;;;;;;;5.80;3.45;;;;;;;9.82;58.17;98736.00;2102837;28;20124;-72
2021/04/27 17:39:52;;;;;;;3.83;3.30;;;;;;;9.83;58.23;98742.97;2103913;28;20501;-72
2021/04/27 17:40:53;;;;;;;4.65;3.42;;;;;;;9.87;57.93;98746.03;2103572;28;20040;-72
2021/04/27 17:41:55;;;;;;;6.28;3.85;;;;;;;9.87;57.75;98745.22;2102942;28;20060;-72
2021/04/27 17:42:55;;;;;;;6.00;4.35;;;;;;;9.88;58.00;98752.16;2101996;28;20540;-72
2021/04/27 17:43:58;;;;;;;5.90;4.20;;;;;;;9.86;57.85;98746.22;2102742;28;20052;-71
2021/04/27 17:44:59;;;;;;;6.57;4.20;;;;;;;9.85;57.94;98740.09;2108370;28;20122;-73
2021/04/27 17:46:02;;;;;;;5.65;3.90;;;;;;;9.88;58.28;98750.31;2102441;28;20495;-72
2021/04/27 17:47:04;;;;;;;5.22;3.95;;;;;;;9.87;58.18;98746.03;2106606;28;20077;-71
2021/04/27 17:48:06;;;;;;;6.13;4.13;;;;;;;9.87;58.08;98750.53;2100708;28;20037;-72
2021/04/27 17:49:07;;;;;;;3.35;3.05;;;;;;;9.76;58.15;98746.72;2103956;28;20049;-71
2021/04/27 17:50:09;;;;;;;;;;;;;;;9.91;57.91;98755.19;2103997;28;20053;-72
2021/04/27 17:51:10;;;;;;;5.88;3.88;;;;;;;9.78;58.14;98748.13;2103162;28;19920;-74
2021/04/27 17:52:11;;;;;;;;;;;;;;;9.89;57.65;98746.63;2104513;28;20068;-72
2021/04/27 17:53:13;;;;;;;4.73;3.10;;;;;;;9.82;57.85;98751.97;2109764;28;19927;-71
2021/04/27 17:54:15;;;;;;;4.47;2.78;;;;;;;9.79;58.06;98747.09;2107630;28;20451;-72
2021/04/27 17:55:22;;;;;;;6.28;3.30;;;;;;;9.81;58.31;98749.53;2092501;28;20033;-72
2021/04/27 17:56:25;;;;;;;4.65;2.88;;;;;;;9.87;58.74;98751.34;2103454;28;20518;-72
2021/04/27 17:57:26;;;;;;;4.32;2.80;;;;;;;9.94;58.84;98744.16;2102130;28;20506;-71
2021/04/27 17:58:28;;;;;;;;;;;;;;;10.10;57.99;98750.81;2098527;28;20044;-72
2021/04/27 17:59:30;;;;;;;4.28;3.15;;;;;;;10.07;57.94;98753.91;2093815;28;19999;-72
2021/04/27 18:00:31;;;;;;;5.90;2.95;;;;;;;10.09;57.88;98748.34;2099645;28;20426;-72
2021/04/27 18:01:33;;;;;;;4.47;3.38;;;;;;;10.08;57.99;98749.38;2093765;28;20049;-72
2021/04/27 18:02:34;;;;;;;;;;;;;;;10.18;57.49;98749.72;2096923;28;20127;-72
2021/04/27 18:03:36;;;;;;;4.47;3.20;;;;;;;10.09;57.73;98751.00;2090564;28;19965;-72
2021/04/27 18:04:38;;;;;;;4.68;3.17;;;;;;;10.05;57.62;98748.78;2097814;28;20040;-72
2021/04/27 18:05:39;;;;;;;4.45;3.65;;;;;;;9.99;57.80;98747.00;2097485;28;20040;-74
2021/04/27 18:06:40;;;;;;;6.28;3.75;;;;;;;9.98;57.94;98749.84;2098427;28;20044;-73
2021/04/27 18:07:41;;;;;;;4.07;3.33;;;;;;;9.96;58.03;98747.38;2098343;28;20040;-72
2021/04/27 18:08:42;;;;;;;5.18;3.33;;;;;;;9.94;58.30;98744.16;2098707;28;20070;-72
2021/04/27 18:09:43;;;;;;;4.05;2.88;;;;;;;9.98;58.31;98750.66;2094269;28;20113;-71
2021/04/27 18:10:44;;;;;;;;;;;;;;;10.10;57.85;98750.81;2097754;28;20620;-71
2021/04/27 18:11:47;;;;;;;3.30;2.65;;;;;;;10.01;58.21;98744.09;2098413;28;19973;-71
2021/04/27 18:12:49;;;;;;;2.97;2.78;;;;;;;9.95;58.13;98744.97;2096798;28;20045;-71
2021/04/27 18:13:49;;;;;;;4.50;2.95;;;;;;;9.94;58.15;98748.63;2093861;28;20076;-72
2021/04/27 18:14:51;;;;;;;3.95;2.60;;;;;;;9.96;58.38;98751.91;2099274;28;20045;-72
2021/04/27 18:15:52;;;;;;;2.75;2.53;;;;;;;9.91;58.02;98743.75;2097963;28;20425;-72
2021/04/27 18:16:52;;;;;;;4.65;3.17;;;;;;;9.94;58.10;98749.47;2097767;28;20064;-72
2021/04/27 18:17:54;;;;;;;11.60;6.90;;;;;;;9.91;58.29;98749.88;2094706;28;20033;-72
2021/04/27 18:18:55;;;;;;;5.90;4.32;;;;;;;9.90;58.24;98747.44;2089365;28;20041;-74
2021/04/27 18:19:56;;;;;;;5.82;3.47;;;;;;;9.92;58.32;98756.84;2083288;28;20044;-72
2021/04/27 18:20:56;;;;;;;3.92;2.90;;;;;;;9.88;58.23;98744.97;2097541;28;20048;-72
2021/04/27 18:21:58;;;;;;;7.05;4.20;;;;;;;9.96;58.40;98752.72;2097809;28;20041;-73
2021/04/27 18:23:02;;;;;;;;;;;;;;;10.10;57.84;98756.13;2093076;28;20143;-72
2021/04/27 18:24:03;;;;;;;4.65;2.58;;;;;;;10.08;58.01;98765.38;2090126;28;19921;-71
2021/04/27 18:25:05;;;;;;;;;;;;;;;10.17;57.42;98750.75;2090510;28;20044;-70
2021/04/27 18:26:06;;;;;;;2.97;2.50;;;;;;;10.03;57.67;98758.00;2094161;28;19927;-72
2021/04/27 18:27:06;;;;;;;6.90;3.20;;;;;;;10.02;58.05;98756.38;2094672;28;20515;-72
2021/04/27 18:28:09;;;;;;;3.00;2.70;;;;;;;9.98;58.55;98753.31;2100835;28;20054;-73
2021/04/27 18:29:10;;;;;;;4.80;2.45;;;;;;;9.97;58.99;98749.03;2095617;28;20068;-70
2021/04/27 18:30:14;;;;;;;5.60;2.55;;;;;;;9.99;58.89;98754.97;2094422;28;20040;-70
2021/04/27 18:31:16;;;;;;;4.40;3.05;;;;;;;9.99;58.88;98754.97;2098110;28;20044;-71
2021/04/27 18:32:17;;;;;;;2.63;2.20;;;;;;;10.01;58.78;98754.75;2097684;28;20028;-68
2021/04/27 18:33:18;;;;;;;4.18;2.67;;;;;;;10.00;58.56;98753.94;2098315;28;20032;-71
2021/04/27 18:34:19;;;;;;;3.22;2.60;;;;;;;9.97;58.75;98754.38;2097937;28;20161;-73
2021/04/27 18:35:21;;;;;;;3.08;2.53;;;;;;;10.00;58.90;98756.59;2097589;28;20044;-71
2021/04/27 18:36:21;;;;;;;6.43;3.30;;;;;;;10.05;59.25;98762.09;2097783;28;20475;-71
2021/04/27 18:37:22;;;;;;;5.28;3.05;;;;;;;10.11;59.02;98762.25;2097889;28;20097;-69
2021/04/27 18:38:23;;;;;;;2.70;2.10;;;;;;;10.19;58.60;98765.47;2098359;28;20044;-72
2021/04/27 18:39:24;;;;;;;4.07;2.25;;;;;;;10.30;58.80;98766.69;2098199;28;20392;-71
2021/04/27 18:40:26;;;;;;;3.45;2.47;;;;;;;10.33;58.02;98768.09;2096049;28;20044;-70
2021/04/27 18:41:26;;;;;;;4.72;2.50;;;;;;;10.33;58.13;98768.91;2097866;28;20063;-69
2021/04/27 18:42:27;;;;;;;2.65;2.33;;;;;;;10.32;58.05;98766.47;2098098;28;20045;-70
2021/04/27 18:43:28;;;;;;;3.75;2.30;;;;;;;10.32;58.22;98769.13;2105600;28;20532;-72
2021/04/27 18:44:29;;;;;;;;;;;;;;;10.42;57.51;98769.47;2106160;28;20044;-70
2021/04/27 18:45:37;;;;;;;3.20;2.53;;;;;;;10.38;57.74;98765.63;2097955;28;20386;-72
2021/04/27 18:46:41;;;;;;;4.47;2.10;;;;;;;10.45;57.88;98761.88;2098015;28;20052;-70
2021/04/27 18:47:43;;;;;;;4.45;2.45;;;;;;;10.55;57.61;98763.22;2097209;28;20053;-72
2021/04/27 18:48:44;;;;;;;2.33;2.10;;;;;;;10.67;57.59;98769.47;2097329;28;20076;-71
2021/04/27 18:49:45;;;;;;;1.70;1.60;;;;;;;10.76;57.31;98770.81;2097867;28;20040;-70
2021/04/27 18:50:46;;;;;;;;;;;;;;;10.88;56.98;98768.28;2098370;28;20425;-72
2021/04/27 18:51:47;;;;;;;3.88;2.00;;;;;;;10.91;56.68;98770.50;2097211;28;19920;-74
2021/04/27 18:52:48;;;;;;;2.30;1.95;;;;;;;10.89;56.33;98772.56;2089177;28;20053;-74
2021/04/27 18:53:49;;;;;;;3.72;1.98;;;;;;;10.85;56.48;98758.06;2097371;28;20037;-74
2021/04/27 18:54:50;;;;;;;2.00;1.80;;;;;;;10.82;56.47;98763.81;2095980;28;20052;-70
2021/04/27 18:55:51;;;;;;;4.30;2.13;;;;;;;10.81;56.52;98770.97;2092525;28;21176;-71
2021/04/27 18:56:53;;;;;;;;;;;;;;;10.93;56.68;98773.75;2085772;28;20053;-69
2021/04/27 18:57:54;;;;;;;2.38;1.48;;;;;;;10.86;56.57;98757.00;2094719;28;20377;-72
2021/04/27 18:58:55;;;;;;;2.10;1.67;;;;;;;10.87;56.68;98759.47;2096773;28;20035;-71
2021/04/27 18:59:56;;;;;;;2.85;1.70;;;;;;;10.84;56.62;98759.91;2105916;28;20043;-70
2021/04/27 19:00:57;;;;;;;3.47;1.40;;;;;;;10.90;56.52;98763.53;2106090;28;20040;-72
2021/04/27 19:02:09;;;;;;;4.00;1.63;;;;;;;10.89;56.63;98767.22;2097148;28;20043;-71
2021/04/27 19:03:10;;;;;;;2.83;1.38;;;;;;;10.83;56.10;98758.25;2096705;28;20495;-71
2021/04/27 19:04:10;;;;;;;1.33;1.23;;;;;;;10.78;55.87;98760.75;2097274;28;20044;-72
2021/04/27 19:05:12;;;;;;;1.60;1.50;;;;;;;10.70;55.96;98761.84;2097726;28;20056;-70
2021/04/27 19:06:13;;;;;;;1.50;1.40;;;;;;;10.71;56.14;98770.66;2097297;28;20048;-72
2021/04/27 19:07:13;;;;;;;1.92;1.63;;;;;;;10.66;55.95;98767.81;2097339;28;20040;-72
2021/04/27 19:08:14;;;;;;;2.22;1.85;;;;;;;10.60;55.94;98760.72;2097646;28;20589;-72
2021/04/27 19:09:15;;;;;;;4.03;1.70;;;;;;;10.50;56.18;98763.88;2098190;28;20052;-72
2021/04/27 19:10:16;;;;;;;;;;;;;;;10.55;55.77;98771.22;2097797;28;20044;-71
2021/04/27 19:11:17;;;;;;;2.92;1.58;;;;;;;10.35;56.23;98766.88;2097449;28;19912;-71
2021/04/27 19:12:18;;;;;;;3.10;1.40;;;;;;;10.29;56.67;98772.22;2096141;28;20056;-71
2021/04/27 19:13:18;;;;;;;3.67;1.10;;;;;;;10.20;56.51;98766.31;2089118;28;20071;-72
2021/04/27 19:14:21;;;;;;;2.90;1.60;;;;;;;10.17;56.76;98769.38;2089379;28;20040;-73
2021/04/27 19:15:23;;;;;;;1.85;1.35;;;;;;;10.07;56.91;98755.72;2089902;28;20053;-71
2021/04/27 19:16:24;;;;;;;1.67;1.30;;;;;;;10.05;56.69;98767.41;2089339;28;20098;-71
2021/04/27 19:17:25;;;;;;;;;;;;;;;10.12;56.34;98762.06;2089200;28;20053;-69
2021/04/27 19:18:26;;;;;;;1.30;1.20;;;;;;;9.99;56.61;98770.09;2091518;28;19928;-71
2021/04/27 19:19:27;;;;;;;1.30;1.20;;;;;;;9.91;56.77;98763.19;2097954;28;20064;-71
2021/04/27 19:20:30;;;;;;;1.85;1.67;;;;;;;9.85;57.03;98763.22;2097986;28;20411;-71
2021/04/27 19:21:33;;;;;;;3.33;1.17;;;;;;;9.84;57.20;98762.41;2098122;28;20143;-71
2021/04/27 19:22:33;;;;;;;4.72;1.30;;;;;;;9.80;57.11;98771.84;2097156;28;20040;-73
2021/04/27 19:23:36;;;;;;;1.35;0.93;;;;;;;9.73;57.09;98771.91;2097562;28;20079;-70
2021/04/27 19:24:37;;;;;;;1.23;1.13;;;;;;;9.68;57.14;98771.72;2089951;28;20907;-69
2021/04/27 19:25:37;;;;;;;;;;;;;;;9.74;56.83;98770.03;2089226;28;20131;-71
2021/04/27 19:26:38;;;;;;;1.87;1.10;;;;;;;9.56;56.91;98771.53;2092079;28;20636;-71
2021/04/27 19:27:39;;;;;;;3.83;1.00;;;;;;;9.44;57.77;98765.22;2097022;28;20438;-71
2021/04/27 19:28:43;;;;;;;1.92;1.17;;;;;;;9.45;58.26;98766.03;2097128;28;20181;-74
2021/04/27 19:29:49;;;;;;;3.10;0.98;;;;;;;9.46;58.09;98767.69;2097591;28;20612;-72
2021/04/27 19:30:56;;;;;;;2.22;1.27;;;;;;;9.44;58.07;98767.91;2097460;28;20044;-72
2021/04/27 19:31:57;;;;;;;1.85;1.15;;;;;;;9.44;57.99;98770.56;2097967;28;20068;-69
2021/04/27 19:33:00;;;;;;;2.60;1.55;;;;;;;9.47;58.38;98774.63;2097543;28;20044;-71
2021/04/27 19:34:01;;;;;;;1.88;1.30;;;;;;;9.51;58.47;98768.69;2097519;28;20146;-71
2021/04/27 19:35:03;;;;;;;1.42;1.33;;;;;;;9.53;58.48;98769.31;2097603;28;20036;-70
2021/04/27 19:36:04;;;;;;;1.67;0.88;;;;;;;9.53;58.33;98757.84;2097592;28;20079;-70
2021/04/27 19:37:05;;;;;;;1.88;1.30;;;;;;;9.50;57.98;98775.06;2097698;28;20044;-71
2021/04/27 19:38:05;;;;;;;2.20;1.02;;;;;;;9.46;57.92;98760.53;2098122;28;20040;-72
2021/04/27 19:39:06;;;;;;;2.53;1.38;;;;;;;9.44;58.14;98770.56;2098047;28;20072;-70
2021/04/27 19:40:09;;;;;;;4.78;1.35;;;;;;;9.36;58.39;98760.97;2097986;28;20055;-71
2021/04/27 19:41:10;;;;;;;2.25;1.10;;;;;;;9.34;58.08;98764.84;2096728;28;20083;-72
2021/04/27 19:42:11;;;;;;;1.38;1.10;;;;;;;9.33;58.03;98768.56;2096509;28;20052;-69
2021/04/27 19:43:12;;;;;;;1.20;1.10;;;;;;;9.30;58.18;98763.66;2096786;28;20101;-71
2021/04/27 19:44:14;;;;;;;2.28;1.02;;;;;;;9.27;58.36;98769.41;2095248;28;20098;-70
2021/04/27 19:45:16;;;;;;;1.63;1.30;;;;;;;9.26;58.82;98763.25;2089354;28;20403;-70
2021/04/27 19:46:17;;;;;;;1.60;1.00;;;;;;;9.24;59.00;98759.16;2096920;28;20036;-72
2021/04/27 19:47:18;;;;;;;1.00;0.90;;;;;;;9.26;59.04;98768.56;2096923;28;20045;-71
2021/04/27 19:48:19;;;;;;;2.80;1.40;;;;;;;9.27;59.73;98761.44;2088854;28;20098;-71
2021/04/27 19:49:20;;;;;;;1.40;1.05;;;;;;;9.29;59.67;98764.66;2089121;28;20051;-71
2021/04/27 19:50:20;;;;;;;1.10;0.90;;;;;;;9.33;59.73;98763.25;2089397;28;20128;-71
2021/04/27 19:51:21;;;;;;;1.38;1.20;;;;;;;9.22;59.20;98746.09;2088768;28;20033;-70
2021/04/27 19:52:22;;;;;;;2.20;1.20;;;;;;;9.32;59.02;98761.59;2087162;28;20122;-70
2021/04/27 19:53:22;;;;;;;2.33;1.10;;;;;;;9.26;59.58;98759.78;2089598;28;20049;-70
2021/04/27 19:54:23;;;;;;;1.52;0.90;;;;;;;9.26;59.50;98762.44;2089212;28;20049;-70
2021/04/27 19:55:24;;;;;;;1.17;0.70;;;;;;;9.27;59.43;98764.09;2089390;28;20561;-70
2021/04/27 19:56:25;;;;;;;1.88;1.10;;;;;;;9.24;59.52;98753.84;2090026;28;20071;-71
2021/04/27 19:57:26;;;;;;;2.72;1.15;;;;;;;9.24;59.12;98764.47;2097566;28;20040;-71
2021/04/27 19:58:27;;;;;;;;;;;;;;;9.31;58.72;98763.44;2097869;28;20074;-70
2021/04/27 19:59:27;;;;;;;1.85;1.20;;;;;;;9.20;59.09;98760.63;2097020;28;19919;-71
2021/04/27 20:00:28;;;;;;;1.60;1.13;;;;;;;9.16;59.00;98758.38;2097067;28;20066;-71
2021/04/27 20:01:32;;;;;;;1.83;1.08;;;;;;;9.13;58.99;98763.28;2095113;28;20036;-72
2021/04/27 20:02:33;;;;;;;1.40;1.13;;;;;;;9.10;59.20;98753.06;2097394;28;20052;-72
2021/04/27 20:03:34;;;;;;;1.60;1.30;;;;;;;9.13;59.22;98764.09;2097098;28;20048;-71
2021/04/27 20:04:35;;;;;;;1.55;1.13;;;;;;;9.13;59.20;98760.63;2097399;28;20041;-71
2021/04/27 20:05:35;;;;;;;1.30;1.00;;;;;;;9.08;59.54;98763.91;2097540;28;20479;-71
2021/04/27 20:06:36;;;;;;;7.07;4.47;;;;;;;9.09;59.82;98762.88;2097150;28;20163;-72
2021/04/27 20:07:37;;;;;;;2.50;2.05;;;;;;;9.03;59.74;98758.38;2097114;28;20116;-72
2021/04/27 20:08:38;;;;;;;2.03;1.67;;;;;;;9.01;59.68;98762.28;2096147;28;20044;-71
2021/04/27 20:09:39;;;;;;;3.20;1.80;;;;;;;9.01;59.63;98765.78;2097430;28;20044;-72
2021/04/27 20:10:40;;;;;;;2.25;1.02;;;;;;;8.97;59.66;98769.84;2097136;28;20076;-71
2021/04/27 20:11:42;;;;;;;2.00;1.80;;;;;;;8.96;59.88;98773.56;2096731;28;20482;-71
2021/04/27 20:12:43;;;;;;;1.88;1.25;;;;;;;8.91;59.87;98771.50;2097450;28;20068;-70
2021/04/27 20:13:44;;;;;;;1.88;0.95;;;;;;;8.90;59.80;98769.03;2092163;28;20139;-70
2021/04/27 20:14:45;;;;;;;5.32;1.75;;;;;;;8.89;59.54;98764.75;2089244;28;20458;-72
2021/04/27 20:15:46;;;;;;;2.05;1.02;;;;;;;8.87;59.73;98764.16;2089067;28;20052;-70
2021/04/27 20:16:47;;;;;;;1.77;1.20;;;;;;;8.86;59.72;98773.16;2088892;28;20041;-70
2021/04/27 20:17:49;;;;;;;;;;;;;;;8.97;59.37;98777.81;2088749;28;20041;-71
2021/04/27 20:18:50;;;;;;;2.13;1.92;;;;;;;8.85;59.47;98767.00;2088636;28;20501;-70
2021/04/27 20:19:51;;;;;;;1.48;1.20;;;;;;;8.83;59.55;98770.88;2096640;28;20044;-71
2021/04/27 20:20:52;;;;;;;3.38;1.60;;;;;;;8.84;59.87;98775.19;2096613;28;20119;-70
2021/04/27 20:21:53;;;;;;;1.52;1.40;;;;;;;8.86;60.19;98775.81;2088941;28;20041;-72
2021/04/27 20:22:54;;;;;;;2.08;1.20;;;;;;;8.85;60.28;98777.63;2088779;28;20040;-72
2021/04/27 20:23:55;;;;;;;2.78;1.05;;;;;;;8.86;60.38;98773.16;2088890;28;20112;-72
2021/04/27 20:24:56;;;;;;;1.45;1.10;;;;;;;8.87;60.39;98774.78;2088937;28;20568;-70
2021/04/27 20:25:57;;;;;;;2.40;1.42;;;;;;;8.91;60.43;98778.66;2088948;28;20049;-69
2021/04/27 20:26:58;;;;;;;1.45;1.02;;;;;;;8.88;60.40;98773.75;2094140;28;20131;-71
2021/04/27 20:29:30;;;;;;;1.38;1.02;;;;;;;8.95;59.91;98782.53;2222473;23;20614;-72
2021/04/27 20:30:31;;;;;;;1.10;0.80;;;;;;;8.92;60.00;98774.97;2028761;29;20040;-72
2021/04/27 20:31:32;;;;;;;;;;;;;;;9.07;59.54;98780.88;2033359;29;20054;-70
2021/04/27 20:32:37;;;;;;;1.17;1.08;;;;;;;9.05;60.25;98788.25;2031917;29;19919;-71
2021/04/27 20:33:38;;;;;;;0.85;0.82;;;;;;;9.05;60.24;98787.44;2024520;29;20052;-71
2021/04/27 20:34:38;;;;;;;4.32;1.20;;;;;;;9.04;60.08;98783.97;2025342;29;20616;-71
2021/04/27 20:35:40;;;;;;;;;;;;;;;9.16;59.86;98786.78;2024956;29;20456;-74
2021/04/27 20:36:41;;;;;;;1.70;1.20;;;;;;;9.10;59.74;98791.09;2031542;29;20354;-74
2021/04/27 20:37:42;;;;;;;;;;;;;;;9.21;59.48;98786.16;2031844;29;20135;-72
2021/04/27 20:38:45;;;;;;;4.75;1.25;;;;;;;8.91;60.11;98744.13;2032490;29;19929;-73
2021/04/27 20:39:48;;;;;;;1.33;0.82;;;;;;;9.16;60.21;98782.31;2026783;29;20518;-72
2021/04/27 20:40:51;;;;;;;5.05;1.10;;;;;;;9.25;60.04;98782.09;2023906;29;20157;-74
2021/04/27 20:41:53;;;;;;;2.05;1.25;;;;;;;9.30;59.91;98790.25;2023949;29;20044;-73
2021/04/27 20:42:54;;;;;;;6.60;1.60;;;;;;;9.32;59.28;98791.69;2024377;29;20049;-72
2021/04/27 20:43:56;;;;;;;1.90;1.27;;;;;;;9.29;59.14;98783.28;2024158;29;20049;-76
2021/04/27 20:44:57;;;;;;;1.20;1.10;;;;;;;9.28;59.32;98786.97;2023428;29;20044;-74
2021/04/27 20:46:00;;;;;;;2.03;1.02;;;;;;;9.31;59.16;98781.22;2015843;29;20528;-73
2021/04/27 20:47:01;;;;;;;1.67;1.13;;;;;;;9.30;59.06;98784.94;2023409;29;20112;-75
2021/04/27 20:48:06;;;;;;;;;;;;;;;9.39;58.70;98795.13;2024689;29;20052;-74
2021/04/27 20:49:07;;;;;;;1.17;1.08;;;;;;;9.33;58.80;98795.16;2024001;29;19970;-75
2021/04/27 20:50:11;;;;;;;1.15;0.95;;;;;;;9.27;59.25;98782.69;2024097;29;20119;-74
2021/04/27 20:51:16;;;;;;;1.30;1.10;;;;;;;9.32;59.23;98790.84;2023478;29;20055;-73
2021/04/27 20:52:17;;;;;;;1.83;1.17;;;;;;;9.33;59.22;98792.50;2024179;29;20036;-76
2021/04/27 20:53:18;;;;;;;1.10;1.00;;;;;;;9.35;58.96;98798.41;2023669;29;20467;-74
2021/04/27 20:54:19;;;;;;;1.75;1.08;;;;;;;9.36;58.95;98800.84;2024073;29;20064;-74
2021/04/27 20:55:20;;;;;;;1.60;1.10;;;;;;;9.38;59.32;98798.00;2024312;29;20040;-74
2021/04/27 20:56:24;;;;;;;2.92;1.20;;;;;;;9.30;58.98;98791.06;2024124;29;20048;-74
2021/04/27 20:57:25;;;;;;;2.92;1.13;;;;;;;9.22;59.33;98767.38;2023539;29;20051;-76
2021/04/27 20:58:26;;;;;;;3.03;1.48;;;;;;;9.37;59.21;98806.97;2023376;29;20579;-74
2021/04/27 20:59:29;;;;;;;2.00;1.20;;;;;;;9.38;59.25;98798.00;2023896;29;20044;-75
2021/04/27 21:00:33;;;;;;;2.15;1.40;;;;;;;9.31;58.93;98792.69;2023703;29;20606;-73
2021/04/27 21:01:34;;;;;;;1.63;0.95;;;;;;;9.32;59.03;98798.81;2023527;29;20059;-72
2021/04/27 21:02:35;;;;;;;2.15;1.45;;;;;;;9.33;59.12;98803.13;2024072;29;20036;-73
2021/04/27 21:03:36;;;;;;;22.55;15.32;;;;;;;9.32;59.17;98798.81;2024058;29;20052;-72
2021/04/27 21:04:36;;;;;;;3.78;3.33;;;;;;;9.34;59.24;98794.09;2023798;29;20188;-72
2021/04/27 21:05:38;;;;;;;3.45;2.35;;;;;;;9.34;59.07;98802.91;2023939;29;20535;-71
2021/04/27 21:06:46;;;;;;;2.47;1.52;;;;;;;9.31;58.82;98791.88;2038446;29;20131;-72
2021/04/27 21:07:49;;;;;;;2.33;1.52;;;;;;;9.33;58.67;98795.97;2036770;29;20545;-73
2021/04/27 21:08:50;;;;;;;3.20;1.40;;;;;;;9.31;58.53;98802.50;2024045;29;20048;-72
2021/04/27 21:09:51;;;;;;;1.92;1.38;;;;;;;9.32;58.90;98804.13;2023605;29;20037;-73
2021/04/27 21:10:54;;;;;;;6.32;1.10;;;;;;;9.26;58.88;98800.47;2023911;29;20055;-72
2021/04/27 21:11:57;;;;;;;1.80;1.20;;;;;;;9.29;58.98;98804.56;2023414;29;20044;-72
2021/04/27 21:13:06;;;;;;;5.13;1.42;;;;;;;9.32;59.09;98806.78;2023562;29;20036;-73
2021/04/27 21:14:07;;;;;;;3.42;1.10;;;;;;;9.32;58.63;98793.50;2023457;29;20048;-73
2021/04/27 21:15:11;;;;;;;1.00;0.90;;;;;;;9.39;59.27;98804.94;2023489;29;20100;-72
2021/04/27 21:16:12;;;;;;;2.13;1.20;;;;;;;9.41;59.04;98802.09;2023878;29;20044;-73
2021/04/27 21:17:13;;;;;;;;;;;;;;;9.55;58.85;98801.84;2024367;29;20131;-73
2021/04/27 21:18:13;;;;;;;2.83;1.20;;;;;;;9.50;58.81;98806.97;2038731;29;19923;-72
2021/04/27 21:19:14;;;;;;;;;;;;;;;9.59;58.22;98803.03;2039263;29;20052;-72
2021/04/27 21:20:16;;;;;;;3.90;1.10;;;;;;;9.51;58.38;98808.59;2031417;29;19922;-73
2021/04/27 21:21:17;;;;;;;2.42;1.10;;;;;;;9.42;58.17;98801.84;2030931;29;20055;-72
2021/04/27 21:22:18;;;;;;;3.80;0.98;;;;;;;9.34;58.26;98807.41;2023811;29;20123;-74
2021/04/27 21:23:20;;;;;;;5.13;1.33;;;;;;;9.33;58.42;98816.41;2023915;29;20051;-72
2021/04/27 21:24:21;;;;;;;1.20;1.10;;;;;;;9.30;58.76;98809.69;2023774;29;20033;-73
2021/04/27 21:25:22;;;;;;;2.97;1.00;;;;;;;9.22;58.48;98803.78;2023247;29;20120;-72
2021/04/27 21:26:23;;;;;;;2.22;0.90;;;;;;;9.28;58.53;98817.03;2023372;29;20052;-73
2021/04/27 21:27:23;;;;;;;1.17;0.93;;;;;;;9.32;58.49;98809.44;2023857;29;20037;-73
2021/04/27 21:28:24;;;;;;;0.88;0.82;;;;;;;9.27;58.35;98806.63;2024050;29;20484;-73
2021/04/27 21:29:26;;;;;;;;;;;;;;;9.42;57.81;98819.66;2024432;29;20131;-71
2021/04/27 21:30:28;;;;;;;1.02;0.90;;;;;;;9.35;58.11;98809.06;2025077;29;19923;-72
2021/04/27 21:31:30;;;;;;;2.15;1.00;;;;;;;9.28;58.14;98806.41;2032968;29;20718;-75
2021/04/27 21:32:31;;;;;;;1.70;0.88;;;;;;;9.21;58.08;98794.16;2032339;29;20100;-74
2021/04/27 21:33:34;;;;;;;1.27;1.17;;;;;;;9.15;58.08;98795.78;2025313;29;20135;-73
2021/04/27 21:34:37;;;;;;;3.90;1.23;;;;;;;9.13;58.26;98795.19;2025381;29;20040;-73
2021/04/27 21:35:37;;;;;;;1.85;1.00;;;;;;;8.94;58.16;98780.91;2024811;29;20535;-73
2021/04/27 21:36:39;;;;;;;2.05;1.00;;;;;;;9.09;58.25;98794.78;2024826;29;20048;-73
2021/04/27 21:37:40;;;;;;;1.00;0.88;;;;;;;9.24;58.63;98802.53;2025541;29;20033;-72
2021/04/27 21:38:43;;;;;;;0.70;0.70;;;;;;;9.23;58.40;98816.03;2024743;29;20041;-73
2021/04/27 21:39:45;;;;;;;0.93;0.85;;;;;;;9.22;58.33;98828.50;2024808;29;20060;-73